Latest Weather Observations for Dalwallinu

IDW60801

Issued at 1:53 pm WST Saturday 10 December 2022 (issued every 10 minutes, with the page automatically refreshed every 10 minutes)

About weather observations | Map of weather stations | Latest weather observations for WA | Other Formats
Station Details ID: 008297 Name: DALWALLINU Lat: -30.28 Lon: 116.67 Height: 324.5 m
Data from the previous 72 hours. | See also: Recent months at Dalwallinu
Date/Time
WST
Temp
°C
App
Temp
°C
Dew
Point
°C
Rel
Hum
%
Delta-T
°C
Wind Press
QNH
hPa
Press
MSL
hPa
Rain since
9am
mm
Dir  Spd
km/h
Gust
km/h
Spd
kts
Gust
kts
10/01:30pm 27.3 22.8 4.4 23 11.8 S 17 33 9 18 1015.5 1013.8 0.0
10/01:00pm 27.4 23.2 5.6 25 11.4 SE 17 26 9 14 1015.8 1014.1 0.0
10/12:30pm 26.4 21.6 4.8 25 11.1 SE 19 35 10 19 1015.9 1014.2 0.0
10/12:00pm 26.7 22.5 5.6 26 11.0 SE 17 30 9 16 1016.3 1014.6 0.0
10/11:30am 25.1 20.6 6.3 30 9.9 SE 19 33 10 18 1016.5 1014.8 0.0
10/11:00am 24.8 20.3 7.0 32 9.4 SE 20 35 11 19 1016.9 1015.2 0.0
10/10:30am 24.6 19.9 7.7 34 9.1 SE 22 35 12 19 1017.0 1015.3 0.0
10/10:00am 23.4 19.3 8.7 39 8.0 SE 20 35 11 19 1017.0 1015.3 0.0
10/09:30am 23.0 17.8 8.7 40 7.7 SE 26 39 14 21 1017.1 1015.4 0.0
10/09:00am 22.3 16.5 8.1 40 7.6 SE 28 39 15 21 1017.2 1015.5 0.0
10/08:30am 21.1 15.4 8.4 44 6.8 SE 28 41 15 22 1017.3 1015.6 0.0
10/08:00am 19.7 13.2 9.0 50 5.7 SE 33 41 18 22 1017.3 1015.6 0.0
10/07:30am 17.9 11.9 10.0 60 4.3 SE 32 39 17 21 1017.2 1015.5 0.0
10/07:00am 16.4 11.4 10.9 70 3.0 SSE 28 39 15 21 1017.0 1015.3 0.0
10/06:30am 14.8 10.6 11.2 79 2.0 SSE 24 32 13 17 1016.5 1014.8 0.0
10/06:00am 13.6 10.2 11.1 85 1.3 S 20 26 11 14 1016.3 1014.6 0.0
10/05:30am 12.7 9.3 10.6 87 1.1 S 19 24 10 13 1016.0 1014.3 0.0
10/05:00am 12.6 9.6 10.5 87 1.1 S 17 22 9 12 1015.7 1014.0 0.0
10/04:30am 12.7 9.4 10.8 88 1.0 SSW 19 24 10 13 1015.5 1013.8 0.0
10/04:00am 12.5 9.5 10.6 88 1.0 SSW 17 22 9 12 1015.3 1013.6 0.0
10/03:30am 12.6 9.2 10.7 88 1.0 SSW 19 24 10 13 1015.1 1013.3 0.0
10/03:00am 12.9 9.4 10.8 87 1.1 SW 20 26 11 14 1015.0 1013.2 0.0
10/02:30am 13.0 9.7 10.9 87 1.1 SW 19 24 10 13 1014.9 1013.1 0.0
10/02:00am 13.0 9.6 10.5 85 1.3 SW 19 24 10 13 1015.1 1013.3 0.0
10/01:30am 12.9 9.4 10.3 84 1.4 SSW 19 24 10 13 1015.3 1013.6 0.0
10/01:00am 13.1 9.9 10.1 82 1.6 SSW 17 20 9 11 1015.4 1013.7 0.0
10/12:30am 13.3 9.8 10.1 81 1.7 SW 19 24 10 13 1015.5 1013.8 0.0
10/12:00am 13.7 10.1 9.9 78 2.0 SW 19 24 10 13 1015.6 1013.9 0.0
 
Date/Time
WST
Temp
°C
App
Temp
°C
Dew
Point
°C
Rel
Hum
%
Delta-T
°C
Wind Press
QNH
hPa
Press
MSL
hPa
Rain since
9am
mm
Dir  Spd
km/h
Gust
km/h
Spd
kts
Gust
kts
09/11:30pm 14.1 10.5 9.7 75 2.3 SW 19 24 10 13 1015.7 1014.0 0.0
09/11:00pm 14.8 11.0 9.8 72 2.6 SW 20 26 11 14 1015.6 1013.9 0.0
09/10:30pm 15.4 11.6 9.7 69 3.0 SW 20 28 11 15 1015.6 1013.9 0.0
09/10:00pm 15.9 11.9 9.1 64 3.6 SW 20 30 11 16 1015.6 1013.9 0.0
09/09:30pm 16.5 12.5 9.0 61 3.9 SW 20 28 11 15 1015.3 1013.6 0.0
09/09:00pm 17.1 12.7 8.8 58 4.3 SW 22 30 12 16 1014.9 1013.1 0.0
09/08:30pm 17.7 12.4 8.6 55 4.8 SW 26 41 14 22 1014.5 1012.8 0.0
09/08:00pm 18.6 12.8 8.0 50 5.5 SW 28 43 15 23 1014.2 1012.5 0.0
09/07:30pm 19.7 14.5 7.1 44 6.5 SW 24 41 13 22 1013.9 1012.2 0.0
09/07:00pm 20.9 15.4 5.7 37 7.7 SW 24 35 13 19 1013.4 1011.7 0.0
09/06:30pm 22.0 15.6 5.4 34 8.4 SW 28 39 15 21 1013.1 1011.4 0.0
09/06:00pm 23.7 18.0 5.1 30 9.5 SW 24 35 13 19 1012.5 1010.8 0.0
09/05:30pm 24.5 18.7 4.3 27 10.2 SW 24 32 13 17 1012.1 1010.3 0.0
09/05:00pm 24.9 19.0 4.1 26 10.5 SW 24 35 13 19 1011.7 1009.9 0.0
09/04:30pm 26.2 21.3 5.2 26 10.9 SW 20 35 11 19 1011.3 1009.6 0.0
09/04:00pm 25.9 21.0 4.9 26 10.8 WSW 20 32 11 17 1011.1 1009.4 0.0
09/03:30pm 26.5 21.6 4.3 24 11.3 WSW 19 30 10 16 1011.0 1009.3 0.0
09/03:00pm 26.4 21.3 4.2 24 11.3 WSW 20 32 11 17 1011.1 1009.4 0.0
09/02:30pm 26.5 22.1 4.9 25 11.2 SW 17 33 9 18 1011.1 1009.4 0.0
09/02:00pm 26.6 22.5 4.4 24 11.4 W 15 28 8 15 1011.3 1009.6 0.0
09/01:30pm 25.7 20.7 4.8 26 10.7 SW 20 32 11 17 1011.7 1009.9 0.0
09/01:00pm 25.7 21.7 6.8 30 10.1 WSW 17 30 9 16 1011.8 1010.0 0.0
09/12:30pm 25.0 20.9 6.2 30 9.8 SW 17 24 9 13 1012.2 1010.4 0.0
09/12:00pm 24.5 21.1 7.6 34 9.1 WSW 15 26 8 14 1012.4 1010.6 0.0
09/11:30am 22.8 18.5 7.0 36 8.3 SW 19 32 10 17 1012.6 1010.9 0.0
09/11:00am 22.6 18.4 7.6 38 7.9 SW 19 28 10 15 1012.7 1011.0 0.0
09/10:30am 21.5 17.9 8.4 43 7.0 SW 17 28 9 15 1013.0 1011.3 0.0
09/10:00am 21.4 18.1 9.6 47 6.4 S 17 24 9 13 1013.2 1011.5 0.0
09/09:30am 20.4 16.7 9.3 49 6.0 SSW 19 30 10 16 1013.2 1011.5 0.0
09/09:00am 19.2 16.0 9.9 55 5.0 SW 17 30 9 16 1013.3 1011.6 0.0
09/08:30am 18.9 15.1 9.9 56 4.9 SSW 20 28 11 15 1013.3 1011.6 0.0
09/08:00am 17.7 13.1 9.8 60 4.2 SSW 24 30 13 16 1013.2 1011.5 0.0
09/07:30am 17.2 13.0 11.0 67 3.4 S 24 32 13 17 1013.0 1011.3 0.0
09/07:00am 15.6 12.6 11.8 78 2.1 SSW 19 26 10 14 1012.8 1011.1 0.0
09/06:30am 13.9 11.5 11.4 85 1.4 SSW 15 20 8 11 1012.8 1011.1 0.0
09/06:00am 12.5 9.5 10.7 89 1.0 SW 17 20 9 11 1012.4 1010.6 0.0
09/05:30am 11.7 8.6 10.3 91 0.7 SW 17 20 9 11 1012.1 1010.3 0.0
09/05:00am 11.5 9.5 10.2 92 0.7 SW 11 15 6 8 1012.0 1010.2 0.0
09/04:30am 11.3 9.6 9.9 91 0.7 SSW 9 13 5 7 1012.0 1010.2 0.0
09/04:00am 12.0 10.1 10.4 90 0.8 SW 11 15 6 8 1011.9 1010.1 0.0
09/03:30am 12.2 10.3 10.6 90 0.8 SW 11 15 6 8 1011.9 1010.1 0.0
09/03:00am 12.5 10.3 10.7 89 1.0 SSW 13 17 7 9 1011.8 1010.0 0.0
09/02:30am 12.8 11.4 11.0 89 1.0 SSW 9 15 5 8 1011.8 1010.0 0.0
09/02:00am 13.1 11.4 11.2 88 1.0 SSW 11 15 6 8 1011.8 1010.0 0.0
09/01:30am 13.3 12.0 11.2 87 1.1 SSW 9 13 5 7 1011.7 1009.9 0.0
09/01:00am 14.0 12.0 11.5 85 1.4 SSW 13 17 7 9 1011.8 1010.0 0.0
09/12:30am 14.6 12.7 11.7 83 1.6 SSW 13 19 7 10 1011.9 1010.1 0.0
09/12:00am 15.1 12.1 11.9 81 1.8 SW 19 28 10 15 1012.0 1010.2 0.0
 
Date/Time
WST
Temp
°C
App
Temp
°C
Dew
Point
°C
Rel
Hum
%
Delta-T
°C
Wind Press
QNH
hPa
Press
MSL
hPa
Rain since
9am
mm
Dir  Spd
km/h
Gust
km/h
Spd
kts
Gust
kts
08/11:30pm 15.8 12.6 11.8 77 2.2 SW 20 26 11 14 1012.2 1010.4 0.0
08/11:00pm 16.4 13.9 12.4 77 2.2 SW 17 24 9 13 1012.3 1010.5 0.0
08/10:30pm 16.5 13.9 12.1 75 2.4 SW 17 20 9 11 1012.4 1010.6 0.0
08/10:00pm 17.0 13.7 11.7 71 2.9 SW 20 30 11 16 1012.5 1010.8 0.0
08/09:30pm 17.5 14.3 11.8 69 3.2 SW 20 28 11 15 1012.4 1010.6 0.0
08/09:00pm 18.0 15.0 11.8 67 3.5 SW 19 28 10 15 1012.0 1010.2 0.0
08/08:30pm 18.7 15.3 12.5 67 3.5 SW 22 33 12 18 1011.5 1009.8 0.0
08/08:00pm 19.4 15.6 12.4 64 4.0 SW 24 41 13 22 1011.1 1009.4 0.0
08/07:30pm 20.2 16.8 12.4 61 4.4 SW 22 39 12 21 1010.6 1008.9 0.0
08/07:00pm 21.5 16.9 12.4 56 5.2 SW 28 39 15 21 1010.1 1008.4 0.0
08/06:30pm 23.0 18.3 12.0 50 6.3 SW 28 41 15 22 1009.5 1007.7 0.0
08/06:00pm 24.7 19.7 12.3 46 7.2 SW 30 46 16 25 1008.8 1007.0 0.0
08/05:30pm 26.3 22.5 12.4 42 8.1 WSW 24 37 13 20 1008.4 1006.6 0.0
08/05:00pm 27.2 22.9 12.0 38 8.9 WSW 26 39 14 21 1007.8 1006.1 0.0
08/04:30pm 28.5 23.4 12.0 36 9.7 SW 30 44 16 24 1007.3 1005.6 0.0
08/04:00pm 28.4 24.4 10.6 33 10.3 WSW 22 32 12 17 1007.2 1005.5 0.0
08/03:30pm 29.6 25.5 10.2 30 11.1 W 22 33 12 18 1007.3 1005.6 0.0
08/03:00pm 30.5 26.7 9.9 28 11.8 W 20 37 11 20 1007.3 1005.6 0.0
08/02:30pm 30.9 26.5 7.4 23 13.0 WSW 20 30 11 16 1007.3 1005.6 0.0
08/02:00pm 30.3 26.1 7.5 24 12.6 SW 19 39 10 21 1007.5 1005.8 0.0
08/01:30pm 29.7 25.5 7.6 25 12.2 WSW 19 35 10 19 1007.7 1006.0 0.0
08/01:00pm 30.0 26.0 8.4 26 12.1 SW 19 30 10 16 1007.8 1006.1 0.0
08/12:30pm 29.0 25.2 7.6 26 11.7 SW 17 28 9 15 1008.0 1006.3 0.0
08/12:00pm 28.7 24.4 7.9 27 11.5 WSW 20 32 11 17 1008.4 1006.6 0.0
08/11:30am 27.1 23.0 8.0 30 10.4 WNW 19 35 10 19 1008.6 1006.8 0.0
08/11:00am 26.3 22.3 8.3 32 9.9 SW 19 28 10 15 1008.6 1006.8 0.0
08/10:30am 25.3 21.1 8.3 34 9.3 WSW 20 32 11 17 1008.8 1007.0 0.0
08/10:00am 24.5 20.9 10.0 40 8.1 WSW 19 32 10 17 1008.8 1007.0 0.0
08/09:30am 22.8 18.6 9.6 43 7.3 W 22 33 12 18 1008.8 1007.0 0.0
08/09:00am 22.7 19.0 11.4 49 6.4 W 22 33 12 18 1008.7 1006.9 0.0
08/08:30am 21.8 18.6 11.2 51 6.0 W 19 28 10 15 1008.5 1006.7 0.0
08/08:00am 20.8 18.4 12.5 59 4.8 W 17 24 9 13 1008.1 1006.4 0.0
08/07:30am 19.4 17.1 12.9 66 3.7 W 17 22 9 12 1007.7 1006.0 0.0
08/07:00am 18.4 16.6 13.3 72 2.9 WNW 15 22 8 12 1007.5 1005.8 0.0
08/06:30am 17.6 15.2 13.7 78 2.2 WNW 19 24 10 13 1007.1 1005.4 0.0
08/06:00am 17.0 15.0 13.9 82 1.8 WNW 17 22 9 12 1006.7 1004.9 0.0
08/05:30am 17.1 14.8 14.0 82 1.8 WNW 19 28 10 15 1006.2 1004.4 0.0
08/05:00am 17.0 14.7 14.1 83 1.7 NW 19 30 10 16 1005.8 1004.0 0.0
08/04:30am 16.6 14.5 13.7 83 1.7 NW 17 22 9 12 1005.6 1003.8 0.0
08/04:00am 16.3 14.5 13.4 83 1.7 NW 15 24 8 13 1005.2 1003.4 0.0
08/03:30am 16.0 14.1 12.9 82 1.7 NW 15 20 8 11 1005.0 1003.3 0.0
08/03:00am 16.1 14.9 12.8 81 1.9 N 11 15 6 8 1005.2 1003.4 0.0
08/02:30am 16.9 14.6 13.0 78 2.2 NNW 17 26 9 14 1004.6 1002.9 0.0
08/02:00am 17.7 15.0 13.6 77 2.4 NW 20 32 11 17 1004.0 1002.2 0.0
08/01:30am 18.4 15.9 14.1 76 2.5 NNW 20 32 11 17 1003.9 1002.1 0.0
08/01:00am 19.1 15.8 14.1 73 2.9 NNW 24 35 13 19 1003.9 1002.1 0.0
08/12:30am 20.3 16.6 14.0 67 3.7 NNW 26 33 14 18 1004.1 1002.3 0.0
08/12:00am 22.7 19.1 12.9 54 5.7 NNW 24 35 13 19 1003.8 1002.0 0.0
 
Date/Time
WST
Temp
°C
App
Temp
°C
Dew
Point
°C
Rel
Hum
%
Delta-T
°C
Wind Press
QNH
hPa
Press
MSL
hPa
Rain since
9am
mm
Dir  Spd
km/h
Gust
km/h
Spd
kts
Gust
kts
07/11:30pm 25.1 22.0 12.3 45 7.5 NW 20 30 11 16 1003.7 1001.9 0.0
07/11:00pm 26.8 23.3 10.1 35 9.5 NNW 19 28 10 15 1003.9 1002.1 0.0
07/10:30pm 28.2 24.6 9.9 32 10.4 NW 19 28 10 15 1004.0 1002.2 0.0
07/10:00pm 28.2 25.4 9.9 32 10.4 NW 15 20 8 11 1003.9 1002.1 0.0
07/09:30pm 29.1 26.1 9.3 29 11.2 NW 15 19 8 10 1004.0 1002.2 0.0
07/09:00pm 30.3 27.0 8.1 25 12.4 NW 15 22 8 12 1004.0 1002.2 0.0
07/08:30pm 30.8 27.6 8.5 25 12.5 N 15 22 8 12 1003.7 1001.9 0.0
07/08:00pm 30.7 26.7 8.4 25 12.5 NE 19 24 10 13 1003.4 1001.6 0.0
07/07:30pm 30.7 26.7 8.4 25 12.5 ENE 19 22 10 12 1003.2 1001.4 0.0
07/07:00pm 31.2 27.7 8.8 25 12.7 ENE 17 22 9 12 1003.0 1001.2 0.0
07/06:30pm 32.0 28.4 8.3 23 13.3 E 17 20 9 11 1002.9 1001.1 0.0
07/06:00pm 32.5 28.2 8.0 22 13.8 E 20 30 11 16 1002.9 1001.1 0.0
07/05:30pm 33.7 29.1 8.3 21 14.4 ENE 22 35 12 19 1002.8 1001.0 0.0
07/05:00pm 33.2 28.9 7.9 21 14.3 E 20 28 11 15 1003.1 1001.3 0.0
07/04:30pm 33.2 29.5 7.9 21 14.2 ENE 17 33 9 18 1003.5 1001.7 0.0
07/04:00pm 33.4 29.2 8.1 21 14.3 E 20 37 11 20 1003.9 1002.1 0.0
07/03:30pm 33.8 31.0 8.4 21 14.4 NE 13 22 7 12 1004.5 1002.8 0.0
07/03:00pm 33.4 28.0 8.1 21 14.3 ENE 26 39 14 21 1005.2 1003.4 0.0
07/02:30pm 32.8 27.9 8.3 22 13.8 ENE 24 41 13 22 1005.8 1004.0 0.0
07/02:00pm 33.3 29.2 10.0 24 13.6 NE 22 44 12 24 1006.4 1004.6 0.0

Other formats

Comma delimited format used in spreadsheet applications
http://www.bom.gov.au/fwo/IDW60801/IDW60801.95629.axf

JavaScript Object Notation format (JSON) in row-major order
http://www.bom.gov.au/fwo/IDW60801/IDW60801.95629.json

Data quality

Most of these data are generated automatically and are frequently updated. Quality checks on data are not normally performed. It is possible for incorrect values to appear. Refer to information at About Latest Weather Observations and please check the disclaimer before using these data.